createdAt,value
2022-10-09T00:02:21.674Z,10.83
2022-10-09T00:05:26.694Z,10.69
2022-10-09T00:08:28.170Z,10.91
2022-10-09T00:11:31.735Z,10.79
2022-10-09T00:14:33.229Z,9.83
2022-10-09T00:17:34.682Z,10.44
2022-10-09T00:20:38.076Z,10.66
2022-10-09T00:23:39.498Z,10.54
2022-10-09T00:26:40.883Z,10.47
2022-10-09T00:29:42.372Z,10.37
2022-10-09T00:32:43.837Z,10.62
2022-10-09T00:35:45.657Z,10.41
2022-10-09T00:38:47.587Z,10.26
2022-10-09T00:41:49.034Z,10.21
2022-10-09T00:44:57.783Z,10.27
2022-10-09T00:48:02.995Z,10.46
2022-10-09T00:51:04.902Z,10.46
2022-10-09T00:54:11.719Z,10.60
2022-10-09T00:57:13.159Z,10.56
2022-10-09T01:00:15.328Z,10.58
2022-10-09T01:03:16.741Z,10.58
2022-10-09T01:06:27.064Z,10.31
2022-10-09T01:09:50.175Z,10.08
2022-10-09T01:13:03.867Z,10.31
2022-10-09T01:16:23.807Z,10.26
2022-10-09T01:19:44.038Z,10.33
2022-10-09T01:23:26.202Z,10.22
2022-10-09T01:26:30.597Z,10.25
2022-10-09T01:29:38.165Z,9.98
2022-10-09T01:32:43.976Z,9.73
2022-10-09T01:35:47.036Z,9.60
2022-10-09T01:38:48.592Z,9.82
2022-10-09T01:41:52.049Z,9.99
2022-10-09T01:44:53.455Z,10.08
2022-10-09T01:47:54.881Z,10.01
2022-10-09T01:51:02.345Z,9.66
2022-10-09T01:54:07.997Z,9.44
2022-10-09T01:57:12.461Z,9.57
2022-10-09T02:00:14.797Z,9.76
2022-10-09T02:03:16.892Z,9.83
2022-10-09T02:06:19.483Z,9.86
2022-10-09T02:09:22.807Z,9.86
2022-10-09T02:12:27.696Z,9.88
2022-10-09T02:15:45.920Z,9.88
2022-10-09T02:19:19.914Z,10.09
2022-10-09T02:22:30.425Z,9.14
2022-10-09T02:25:32.534Z,9.20
2022-10-09T02:28:34.224Z,9.42
2022-10-09T02:31:40.236Z,9.37
2022-10-09T02:34:41.972Z,9.67
2022-10-09T02:37:43.353Z,9.71
2022-10-09T02:40:44.818Z,9.62
2022-10-09T02:43:46.197Z,9.11
2022-10-09T02:46:47.699Z,9.40
2022-10-09T02:49:49.108Z,9.28
2022-10-09T02:52:50.671Z,9.59
2022-10-09T02:55:52.454Z,9.43
2022-10-09T02:58:54.200Z,9.28
2022-10-09T03:01:55.864Z,9.32
2022-10-09T03:04:57.439Z,9.08
2022-10-09T03:07:58.921Z,9.23
2022-10-09T03:11:00.398Z,8.97
2022-10-09T03:14:01.893Z,9.27
2022-10-09T03:17:03.268Z,9.07
2022-10-09T03:20:05.371Z,9.15
2022-10-09T03:23:06.986Z,9.09
2022-10-09T03:26:10.971Z,8.94
2022-10-09T03:29:12.398Z,8.89
2022-10-09T03:32:14.068Z,8.93
2022-10-09T03:35:15.595Z,9.04
2022-10-09T03:38:17.323Z,9.01
2022-10-09T03:41:18.805Z,8.88
2022-10-09T03:44:20.244Z,8.82
2022-10-09T03:47:21.673Z,8.77
2022-10-09T03:50:23.090Z,8.79
2022-10-09T03:53:24.548Z,8.70
2022-10-09T03:56:25.987Z,8.77
2022-10-09T03:59:27.413Z,8.38
2022-10-09T04:02:28.948Z,8.61
2022-10-09T04:05:34.758Z,8.71
2022-10-09T04:08:36.142Z,8.57
2022-10-09T04:11:37.608Z,8.66
2022-10-09T04:14:39.040Z,8.94
2022-10-09T04:17:40.490Z,8.61
2022-10-09T04:20:48.593Z,8.88
2022-10-09T04:23:51.261Z,8.39
2022-10-09T04:26:52.826Z,8.54
2022-10-09T04:29:54.224Z,8.27
2022-10-09T04:32:55.657Z,8.43
2022-10-09T04:35:57.844Z,8.26
2022-10-09T04:38:59.328Z,8.28
2022-10-09T04:42:00.800Z,8.39
2022-10-09T04:45:02.392Z,8.39
2022-10-09T04:48:03.945Z,8.53
2022-10-09T04:51:06.457Z,8.72
2022-10-09T04:54:07.848Z,8.59
2022-10-09T04:57:09.248Z,8.40
2022-10-09T05:00:11.879Z,8.00
2022-10-09T05:03:13.459Z,8.19
2022-10-09T05:06:15.699Z,8.29
2022-10-09T05:09:17.269Z,8.39
2022-10-09T05:12:18.725Z,8.31
2022-10-09T05:15:20.359Z,8.62
2022-10-09T05:18:21.799Z,8.23
2022-10-09T05:21:24.592Z,8.10
2022-10-09T05:24:26.441Z,8.23
2022-10-09T05:27:27.997Z,8.50
2022-10-09T05:30:29.452Z,8.48
2022-10-09T05:33:31.017Z,8.26
2022-10-09T05:36:32.515Z,8.35
2022-10-09T05:39:35.879Z,8.26
2022-10-09T05:42:37.391Z,8.27
2022-10-09T05:45:38.982Z,8.33
2022-10-09T05:48:42.480Z,8.21
2022-10-09T05:51:43.929Z,8.28
2022-10-09T05:54:45.357Z,8.60
2022-10-09T05:57:46.788Z,8.65
2022-10-09T06:00:48.291Z,8.67
2022-10-09T06:03:51.857Z,8.26
2022-10-09T06:06:53.397Z,7.92
2022-10-09T06:09:54.866Z,7.83
2022-10-09T06:12:56.386Z,7.82
2022-10-09T06:15:57.774Z,7.57
2022-10-09T06:19:00.418Z,7.26
2022-10-09T06:22:01.896Z,8.08
2022-10-09T06:25:03.569Z,8.45
2022-10-09T06:28:04.994Z,8.45
2022-10-09T06:31:12.640Z,8.40
2022-10-09T06:34:14.333Z,8.36
2022-10-09T06:37:15.829Z,8.03
2022-10-09T06:40:17.271Z,8.27
2022-10-09T06:43:18.788Z,8.58
2022-10-09T06:46:22.506Z,8.51
2022-10-09T06:49:24.071Z,8.62
2022-10-09T06:52:25.553Z,8.43
2022-10-09T06:55:28.801Z,8.62
2022-10-09T06:58:30.821Z,8.81
2022-10-09T07:01:33.245Z,8.99
2022-10-09T07:04:34.604Z,9.00
2022-10-09T07:07:39.711Z,9.02
2022-10-09T07:10:41.124Z,9.33
2022-10-09T07:13:43.900Z,9.22
2022-10-09T07:16:47.120Z,9.52
2022-10-09T07:19:49.086Z,9.19
2022-10-09T07:22:51.077Z,9.08
2022-10-09T07:25:52.795Z,9.03
2022-10-09T07:28:54.422Z,8.76
2022-10-09T07:31:55.856Z,8.92
2022-10-09T07:34:57.404Z,9.04
2022-10-09T07:37:58.806Z,9.26
2022-10-09T07:41:02.248Z,9.47
2022-10-09T07:44:03.755Z,9.29
2022-10-09T07:47:05.344Z,9.41
2022-10-09T07:50:07.387Z,9.54
2022-10-09T07:53:08.994Z,10.00
2022-10-09T07:56:21.759Z,9.73
2022-10-09T07:59:23.187Z,10.12
2022-10-09T08:02:24.640Z,10.21
2022-10-09T08:05:26.087Z,10.38
2022-10-09T08:08:27.507Z,10.37
2022-10-09T08:11:30.117Z,10.17
2022-10-09T08:14:31.653Z,10.17
2022-10-09T08:17:33.029Z,10.64
2022-10-09T08:20:34.531Z,10.29
2022-10-09T08:23:36.131Z,10.55
2022-10-09T08:26:37.687Z,10.88
2022-10-09T08:29:40.367Z,10.79
2022-10-09T08:32:41.926Z,10.62
2022-10-09T08:35:43.528Z,11.08
2022-10-09T08:38:47.582Z,10.87
2022-10-09T08:41:58.661Z,11.13
2022-10-09T08:45:00.114Z,11.54
2022-10-09T08:48:11.888Z,12.42
2022-10-09T08:51:29.500Z,12.26
2022-10-09T08:54:36.374Z,11.92
2022-10-09T08:57:39.369Z,11.84
2022-10-09T09:00:53.877Z,12.14
2022-10-09T09:04:04.155Z,12.63
2022-10-09T09:07:05.523Z,12.38
2022-10-09T09:10:28.291Z,12.85
2022-10-09T09:13:44.177Z,13.00
2022-10-09T09:17:06.956Z,13.78
2022-10-09T09:20:27.075Z,13.09
2022-10-09T09:23:33.885Z,13.21
2022-10-09T09:26:35.321Z,13.83
2022-10-09T09:29:44.276Z,14.26
2022-10-09T09:33:01.577Z,14.28
2022-10-09T09:36:14.167Z,14.04
2022-10-09T09:42:37.475Z,14.13
2022-10-09T09:45:38.872Z,14.19
2022-10-09T09:48:43.940Z,14.45
2022-10-09T09:51:46.907Z,14.47
2022-10-09T09:54:49.350Z,14.92
2022-10-09T09:57:51.084Z,15.21
2022-10-09T10:01:03.147Z,15.57
2022-10-09T10:04:04.776Z,15.69
2022-10-09T10:07:06.178Z,15.80
2022-10-09T10:10:24.975Z,16.29
2022-10-09T10:13:27.139Z,16.60
2022-10-09T10:16:29.911Z,16.30
2022-10-09T10:19:38.639Z,17.07
2022-10-09T10:22:40.182Z,17.12
2022-10-09T10:25:41.596Z,17.38
2022-10-09T10:28:48.813Z,17.27
2022-10-09T10:32:28.974Z,17.80
2022-10-09T10:35:34.544Z,18.00
2022-10-09T10:38:44.143Z,17.76
2022-10-09T10:41:49.835Z,18.00
2022-10-09T10:45:04.067Z,18.55
2022-10-09T10:48:35.361Z,17.85
2022-10-09T10:52:03.103Z,18.29
2022-10-09T10:55:16.759Z,18.39
2022-10-09T10:58:29.228Z,18.92
2022-10-09T11:01:46.216Z,19.15
2022-10-09T11:04:56.240Z,18.67
2022-10-09T11:08:25.258Z,18.71
2022-10-09T11:11:41.757Z,18.94
2022-10-09T11:15:16.872Z,19.68
2022-10-09T11:18:30.356Z,19.31
2022-10-09T11:21:38.532Z,19.69
2022-10-09T11:25:10.492Z,19.80
2022-10-09T11:28:18.356Z,19.55
2022-10-09T11:31:28.409Z,19.51
2022-10-09T11:34:40.924Z,18.33
2022-10-09T11:37:48.353Z,17.64
2022-10-09T11:40:50.401Z,17.45
2022-10-09T11:44:09.746Z,17.45
2022-10-09T11:47:17.162Z,17.33
2022-10-09T11:50:36.816Z,17.42
2022-10-09T11:53:40.198Z,17.41
2022-10-09T11:56:57.058Z,17.38
2022-10-09T12:00:08.969Z,17.41
2022-10-09T12:03:34.264Z,17.32
2022-10-09T12:07:04.816Z,17.23
2022-10-09T12:10:19.787Z,17.27
2022-10-09T12:13:36.705Z,17.39
2022-10-09T12:16:43.953Z,17.61
2022-10-09T12:19:45.824Z,17.75
2022-10-09T12:23:14.284Z,17.67
2022-10-09T12:26:15.369Z,17.60
2022-10-09T12:29:31.605Z,17.56
2022-10-09T12:32:39.331Z,17.60
2022-10-09T12:35:45.180Z,17.78
2022-10-09T12:38:46.670Z,17.67
2022-10-09T12:41:52.593Z,17.72
2022-10-09T12:44:55.322Z,17.75
2022-10-09T12:48:09.714Z,18.03
2022-10-09T12:51:23.061Z,17.93
2022-10-09T12:54:26.628Z,17.85
2022-10-09T12:57:29.170Z,17.93
2022-10-09T13:00:32.411Z,18.04
2022-10-09T13:03:37.114Z,17.93
2022-10-09T13:06:45.040Z,18.00
2022-10-09T13:09:46.620Z,17.97
2022-10-09T13:12:58.914Z,18.25
2022-10-09T13:16:03.873Z,18.20
2022-10-09T13:19:27.744Z,18.15
2022-10-09T13:22:35.738Z,18.39
2022-10-09T13:25:41.385Z,18.41
2022-10-09T13:28:42.922Z,18.36
2022-10-09T13:31:44.637Z,18.41
2022-10-09T13:34:47.189Z,18.46
2022-10-09T13:37:49.066Z,18.51
2022-10-09T13:40:50.631Z,18.40
2022-10-09T13:43:53.230Z,18.51
2022-10-09T13:46:54.964Z,18.56
2022-10-09T13:49:56.420Z,18.54
2022-10-09T13:52:57.926Z,18.54
2022-10-09T13:56:01.060Z,18.47
2022-10-09T13:59:02.950Z,18.43
2022-10-09T14:02:04.412Z,18.57
2022-10-09T14:05:06.295Z,18.64
2022-10-09T14:08:08.004Z,18.52
2022-10-09T14:11:09.702Z,18.71
2022-10-09T14:14:11.177Z,18.47
2022-10-09T14:17:12.560Z,18.56
2022-10-09T14:20:14.430Z,18.76
2022-10-09T14:23:15.919Z,18.80
2022-10-09T14:26:17.354Z,18.74
2022-10-09T14:29:19.109Z,18.62
2022-10-09T14:32:20.590Z,18.80
2022-10-09T14:35:22.330Z,18.79
2022-10-09T14:38:23.794Z,18.78
2022-10-09T14:41:25.353Z,18.77
2022-10-09T14:44:26.889Z,18.79
2022-10-09T14:47:28.334Z,18.72
2022-10-09T14:50:29.780Z,18.76
2022-10-09T14:53:31.721Z,18.62
2022-10-09T14:56:33.372Z,18.52
2022-10-09T14:59:34.760Z,18.50
2022-10-09T15:02:36.314Z,18.51
2022-10-09T15:05:37.740Z,18.63
2022-10-09T15:08:42.185Z,18.61
2022-10-09T15:11:43.621Z,18.14
2022-10-09T15:14:45.046Z,18.56
2022-10-09T15:17:46.651Z,18.30
2022-10-09T15:20:48.223Z,18.21
2022-10-09T15:23:50.441Z,18.16
2022-10-09T15:26:51.895Z,18.18
2022-10-09T15:29:53.392Z,18.19
2022-10-09T15:32:55.729Z,18.25
2022-10-09T15:35:57.276Z,18.09
2022-10-09T15:39:02.832Z,18.00
2022-10-09T15:42:04.483Z,18.05
2022-10-09T15:45:06.738Z,17.95
2022-10-09T15:48:12.550Z,17.91
2022-10-09T15:51:14.570Z,17.89
2022-10-09T15:54:16.802Z,17.79
2022-10-09T15:57:18.493Z,17.73
2022-10-09T16:00:20.122Z,17.70
2022-10-09T16:03:21.889Z,17.54
2022-10-09T16:06:24.542Z,17.55
2022-10-09T16:09:27.706Z,17.59
2022-10-09T16:12:29.505Z,17.58
2022-10-09T16:15:31.066Z,17.76
2022-10-09T16:18:33.219Z,17.84
2022-10-09T16:21:34.826Z,17.63
2022-10-09T16:24:36.823Z,17.27
2022-10-09T16:27:38.563Z,17.52
2022-10-09T16:30:42.324Z,17.01
2022-10-09T16:33:44.124Z,17.10
2022-10-09T16:36:45.841Z,17.00
2022-10-09T16:39:49.329Z,17.13
2022-10-09T16:42:51.409Z,16.93
2022-10-09T16:45:53.499Z,17.02
2022-10-09T16:48:56.841Z,16.95
2022-10-09T16:51:58.714Z,16.63
2022-10-09T16:55:00.892Z,16.43
2022-10-09T16:58:02.828Z,16.31
2022-10-09T17:01:09.463Z,16.17
2022-10-09T17:04:12.811Z,16.10
2022-10-09T17:07:14.353Z,15.82
2022-10-09T17:10:15.823Z,15.81
2022-10-09T17:13:17.485Z,15.82
2022-10-09T17:16:21.641Z,15.78
2022-10-09T17:19:23.049Z,15.58
2022-10-09T17:22:24.440Z,15.64
2022-10-09T17:25:25.933Z,15.68
2022-10-09T17:28:27.562Z,15.55
2022-10-09T17:31:30.324Z,15.58
2022-10-09T17:34:31.787Z,15.67
2022-10-09T17:37:33.202Z,15.63
2022-10-09T17:40:41.367Z,15.04
2022-10-09T17:43:43.226Z,15.28
2022-10-09T17:46:44.652Z,15.15
2022-10-09T17:49:46.098Z,14.82
2022-10-09T17:52:47.786Z,15.15
2022-10-09T17:55:50.753Z,15.12
2022-10-09T17:58:54.818Z,15.03
2022-10-09T18:01:56.248Z,15.41
2022-10-09T18:04:58.068Z,15.43
2022-10-09T18:07:59.526Z,15.46
2022-10-09T18:11:03.706Z,15.63
2022-10-09T18:14:05.353Z,15.42
2022-10-09T18:17:06.769Z,15.05
2022-10-09T18:20:08.573Z,15.26
2022-10-09T18:23:10.309Z,15.40
2022-10-09T18:26:14.587Z,15.32
2022-10-09T18:29:16.196Z,15.19
2022-10-09T18:32:17.847Z,14.81
2022-10-09T18:35:19.656Z,15.00
2022-10-09T18:38:21.063Z,14.75
2022-10-09T18:41:23.246Z,14.85
2022-10-09T18:44:24.736Z,14.36
2022-10-09T18:47:32.520Z,14.52
2022-10-09T18:50:34.167Z,14.55
2022-10-09T18:53:37.879Z,14.68
2022-10-09T18:56:40.172Z,14.29
2022-10-09T18:59:42.328Z,14.52
2022-10-09T19:02:44.052Z,14.30
2022-10-09T19:05:45.520Z,14.33
2022-10-09T19:08:47.150Z,14.26
2022-10-09T19:11:48.581Z,14.36
2022-10-09T19:14:50.109Z,14.59
2022-10-09T19:17:52.029Z,14.70
2022-10-09T19:20:53.856Z,14.84
2022-10-09T19:23:55.467Z,14.88
2022-10-09T19:26:58.272Z,14.80
2022-10-09T19:29:59.859Z,14.80
2022-10-09T19:33:01.625Z,14.78
2022-10-09T19:36:04.028Z,14.74
2022-10-09T19:39:07.292Z,14.68
2022-10-09T19:42:08.711Z,14.62
2022-10-09T19:45:10.399Z,14.49
2022-10-09T19:48:11.926Z,14.71
2022-10-09T19:51:17.046Z,14.82
2022-10-09T19:54:18.686Z,14.77
2022-10-09T19:57:20.115Z,14.80
2022-10-09T20:00:21.508Z,14.86
2022-10-09T20:03:22.927Z,14.78
2022-10-09T20:06:25.356Z,14.78
2022-10-09T20:09:26.907Z,14.71
2022-10-09T20:12:28.317Z,14.75
2022-10-09T20:15:30.337Z,14.79
2022-10-09T20:18:32.153Z,14.79
2022-10-09T20:21:34.959Z,14.81
2022-10-09T20:24:37.348Z,14.45
2022-10-09T20:27:42.930Z,14.71
2022-10-09T20:30:44.352Z,14.73
2022-10-09T20:33:47.432Z,14.54
2022-10-09T20:36:50.142Z,14.71
2022-10-09T20:39:51.869Z,14.46
2022-10-09T20:42:53.989Z,14.42
2022-10-09T20:45:55.835Z,14.50
2022-10-09T20:48:57.812Z,14.70
2022-10-09T20:52:01.869Z,14.69
2022-10-09T20:55:06.419Z,14.45
2022-10-09T20:58:08.170Z,14.69
2022-10-09T21:01:11.565Z,14.38
2022-10-09T21:04:14.849Z,14.56
2022-10-09T21:07:16.264Z,14.08
2022-10-09T21:10:17.953Z,14.38
2022-10-09T21:13:19.367Z,14.52
2022-10-09T21:16:23.344Z,14.58
2022-10-09T21:19:24.751Z,14.45
2022-10-09T21:22:27.002Z,14.16
2022-10-09T21:25:28.346Z,14.43
2022-10-09T21:28:30.377Z,14.45
2022-10-09T21:31:33.270Z,14.44
2022-10-09T21:34:36.472Z,14.45
2022-10-09T21:37:38.336Z,13.96
2022-10-09T21:40:40.294Z,14.07
2022-10-09T21:43:41.885Z,14.13
2022-10-09T21:46:44.329Z,14.38
2022-10-09T21:49:46.123Z,14.40
2022-10-09T21:52:49.430Z,14.42
2022-10-09T21:55:51.340Z,14.29
2022-10-09T21:58:52.846Z,13.95
2022-10-09T22:01:54.313Z,13.82
2022-10-09T22:04:57.191Z,13.82
2022-10-09T22:07:58.772Z,13.69
2022-10-09T22:11:00.336Z,13.67
2022-10-09T22:14:01.902Z,13.62
2022-10-09T22:17:03.599Z,13.49
2022-10-09T22:20:05.744Z,13.58
2022-10-09T22:23:07.630Z,13.59
2022-10-09T22:26:14.044Z,13.58
2022-10-09T22:29:15.473Z,13.59
2022-10-09T22:32:16.876Z,13.37
2022-10-09T22:35:18.445Z,13.50
2022-10-09T22:38:19.895Z,13.66
2022-10-09T22:41:22.296Z,13.65
2022-10-09T22:44:23.795Z,13.55
2022-10-09T22:47:25.525Z,13.53
2022-10-09T22:50:27.007Z,13.59
2022-10-09T22:53:28.665Z,13.67
2022-10-09T22:56:36.520Z,13.66
2022-10-09T22:59:38.112Z,13.72
2022-10-09T23:02:39.580Z,13.71
2022-10-09T23:05:41.303Z,13.64
2022-10-09T23:08:46.336Z,13.60
2022-10-09T23:11:47.788Z,13.69
2022-10-09T23:14:49.245Z,13.71
2022-10-09T23:17:52.965Z,13.78
2022-10-09T23:20:54.580Z,13.70
2022-10-09T23:23:57.148Z,13.70
2022-10-09T23:26:58.627Z,13.70
2022-10-09T23:30:00.110Z,13.70
2022-10-09T23:33:01.577Z,13.78
2022-10-09T23:36:04.252Z,13.75
2022-10-09T23:39:06.994Z,13.71
2022-10-09T23:42:08.607Z,13.73
2022-10-09T23:45:10.283Z,13.82
2022-10-09T23:48:11.708Z,13.85
2022-10-09T23:51:14.188Z,13.80
2022-10-09T23:54:15.644Z,13.78
2022-10-09T23:57:17.140Z,13.75
